Pagrindinis puslapis
METAR-TAF:

METAR-TAF

Oro uostai :

Erbilis, Irakas

platuma: 36-14-15N, ilguma: 43-57-47E, Aukštis: 415 m

Dabartinis oras

Ataskaita buvo paskelbta 58 minutes, ne 23:00 UTC
Vėjas 2 kt iš Pietų/Pietvakarių
Temperatūra 21°C
Drėgmė 30%
Slėgis 1014 hPa
Matomumas 10 km arba daugiau
nėra debesų žemiau 1500 m ir nėra kamuolinių lietaus debesų

METAR: ORER 182300Z 20002KT CAVOK 21/03 Q1014 NOSIG

Laikas: 02:58 (23:58 UTC)

Prognozė

Ataskaita buvo paskelbta 2 valandos ir 58 minutes, ne 21:00 UTC
Prognozė galioja nuo 19 metu 00 UTC su 19 metu 24 UTC
Vėjas 3 kt nuo kintamojo kryptimis
Matomumas: 8000 m

TAF: ORER 182100Z 1900/1924 VRB03KT 8000 NSC

Orai ataskaitas ir orų prognozės (METAR, TAF).

turimą stotys yra geltonos ir raudonos taškus žemėlapyje.

Perkelti pele per norėdami pamatyti stoties vardą.

Tada spustelėkite, norėdami matyti oro stebėjimo ir prognozės.

Norėdami pakeisti žemėlapį: spustelėkite ant žalios mygtukų su juodo kryžiaus žemyn,; žalią mygtuką su brūkšneliu, jei norite nutolinti; arba žalių rodyklių gretimoms žemėlapius.


METAR-TAF: